MMTG/TGZ METAR and TAF weather

Enter ICAO airport designator
Station Type Date Time Source
MMTG METAR 2020/09/20 01:55 UTC NOAA

MMTG 200155Z 30013KT 7SM BKN050 BKN130 25/20 A2992 RMK 8/770


Station Type Date Time Source
MMTG Decoded METAR 2020/09/20 01:55 UTC NOAA

Tuxtla Gutierrez, Chis., Mexico (MMTG) 16-45N 093-07W
Sep 19, 2020 - 09:55 PM EDT / 2020.09.20 0155 UTC
Wind: from the WNW (300 degrees) at 15 MPH (13 KT):0
Visibility: 7 mile(s):0
Sky conditions: mostly cloudy
Temperature: 77 F (25 C)
Dew Point: 68 F (20 C)
Relative Humidity: 73%
Pressure (altimeter): 29.92 in. Hg (1013 hPa)
ob: MMTG 200155Z 30013KT 7SM BKN050 BKN130 25/20 A2992 RMK 8/770
cycle: 2

Station Type Date Time Source
MMTG TAF 2020/09/19 18:59 UTC NOAA

TAF COR MMTG 190157Z 1818/1918 32015KT P6SM BKN015CB OVC080
TEMPO 1820/1824 3SM TSRA
BECMG 1901/1902 04010KT
TEMPO 1901/1905 2SM TSRA
FM190900 00000KT 4SM HZ OVC010
FM191600 34010KT 5SM HZ SCT010 OVC090

Example: see airport list